Time;durP1;ratioP1;P1;durP2;ratioP2;P2;SDS_P1;SDS_P2;PMS_P1;PMS_P2;Temp;Humidity;BMP_temperature;BMP_pressure;BME280_temperature;BME280_humidity;BME280_pressure;Samples;Min_cycle;Max_cycle;Signal;HPM_P1;HPM_P2
2021/10/16 00:02:05;;;;;;;11.53;2.73;;;;;;;;;;5034177;28;20534;-91
2021/10/16 00:04:30;;;;;;;6.97;2.67;;;;;;;;;;5060800;28;20022;-91
2021/10/16 00:06:55;;;;;;;7.17;2.33;;;;;;;;;;5032362;28;20504;-91
2021/10/16 00:09:20;;;;;;;8.43;3.10;;;;;;;;;;5032746;28;20025;-92
2021/10/16 00:11:46;;;;;;;6.77;2.67;;;;;;;;;;5066984;28;20022;-91
2021/10/16 00:14:11;;;;;;;7.67;2.83;;;;;;;;;;5030429;28;20469;-91
2021/10/16 00:16:36;;;;;;;6.03;2.13;;;;;;;;;;5030253;28;20029;-92
2021/10/16 00:19:01;;;;;;;6.83;2.70;;;;;;;;;;5033473;28;20022;-91
2021/10/16 00:21:26;;;;;;;11.17;2.83;;;;;;;;;;5066655;28;20021;-91
2021/10/16 00:23:52;;;;;;;8.23;2.43;;;;;;;;;;5034238;28;20028;-90
2021/10/16 00:26:17;;;;;;;6.47;2.50;;;;;;;;;;5020989;28;20033;-91
2021/10/16 00:28:42;;;;;;;6.43;2.27;;;;;;;;;;5033274;28;20021;-91
2021/10/16 00:31:07;;;;;;;8.13;2.07;;;;;;;;;;5033154;28;20024;-91
2021/10/16 00:33:33;;;;;;;11.60;3.00;;;;;;;;;;5033309;28;20100;-91
2021/10/16 00:35:58;;;;;;;5.17;2.07;;;;;;;;;;5033444;28;20025;-91
2021/10/16 00:38:23;;;;;;;4.77;2.27;;;;;;;;;;5066648;28;20017;-91
2021/10/16 00:40:49;;;;;;;6.87;2.50;;;;;;;;;;5066805;28;20022;-92
2021/10/16 00:43:14;;;;;;;7.93;2.30;;;;;;;;;;5033368;28;20013;-91
2021/10/16 00:45:40;;;;;;;8.37;2.87;;;;;;;;;;5033430;28;20028;-91
2021/10/16 00:48:05;;;;;;;4.83;2.27;;;;;;;;;;5066597;28;20024;-91
2021/10/16 00:50:30;;;;;;;8.40;2.23;;;;;;;;;;5033239;28;20021;-91
2021/10/16 00:52:55;;;;;;;5.77;2.57;;;;;;;;;;5033162;28;20068;-92
2021/10/16 00:55:22;;;;;;;6.27;2.43;;;;;;;;;;5033127;28;20025;-92
2021/10/16 00:57:48;;;;;;;5.53;2.30;;;;;;;;;;5033094;28;20025;-92
2021/10/16 01:00:14;;;;;;;12.07;2.33;;;;;;;;;;5032899;28;20445;-92
2021/10/16 01:02:39;;;;;;;4.47;2.30;;;;;;;;;;5033236;28;20026;-93
2021/10/16 01:05:05;;;;;;;6.70;2.20;;;;;;;;;;5066309;28;20017;-91
2021/10/16 01:07:31;;;;;;;5.23;2.30;;;;;;;;;;5066382;28;20028;-91
2021/10/16 01:09:56;;;;;;;4.87;2.30;;;;;;;;;;5031082;28;20022;-92
2021/10/16 01:12:21;;;;;;;5.73;2.30;;;;;;;;;;5066320;28;20013;-91
2021/10/16 01:14:49;;;;;;;16.50;2.57;;;;;;;;;;5053068;28;20481;-91
2021/10/16 01:17:17;;;;;;;6.23;2.73;;;;;;;;;;5032550;28;20029;-91
2021/10/16 01:19:43;;;;;;;8.40;2.77;;;;;;;;;;5033535;28;20106;-91
2021/10/16 01:22:09;;;;;;;7.07;2.60;;;;;;;;;;5040675;28;20480;-92
2021/10/16 01:24:34;;;;;;;5.70;2.73;;;;;;;;;;5025659;28;20013;-91
2021/10/16 01:26:59;;;;;;;5.27;2.93;;;;;;;;;;5038994;28;20108;-91
2021/10/16 01:29:25;;;;;;;4.70;2.33;;;;;;;;;;5068854;28;20014;-91
2021/10/16 01:31:51;;;;;;;6.63;2.73;;;;;;;;;;5029416;28;20036;-91
2021/10/16 01:34:16;;;;;;;7.00;2.00;;;;;;;;;;5039195;28;20021;-91
2021/10/16 01:36:45;;;;;;;4.50;2.20;;;;;;;;;;5072809;28;20481;-91
2021/10/16 01:39:11;;;;;;;6.27;2.47;;;;;;;;;;5040385;28;20018;-92
2021/10/16 01:41:36;;;;;;;5.80;2.33;;;;;;;;;;5039275;28;20021;-91
2021/10/16 01:44:03;;;;;;;6.30;2.30;;;;;;;;;;5039426;28;20469;-91
2021/10/16 01:46:28;;;;;;;4.67;2.13;;;;;;;;;;5039203;28;20017;-91
2021/10/16 01:48:53;;;;;;;9.40;2.43;;;;;;;;;;5039306;28;20160;-92
2021/10/16 01:51:18;;;;;;;18.50;2.97;;;;;;;;;;5064660;28;20022;-91
2021/10/16 01:53:46;;;;;;;8.50;2.23;;;;;;;;;;5028790;28;20013;-92
2021/10/16 01:56:12;;;;;;;5.77;2.33;;;;;;;;;;5038860;28;20389;-92
2021/10/16 01:58:37;;;;;;;9.40;2.90;;;;;;;;;;5039122;28;20032;-92
2021/10/16 02:01:02;;;;;;;6.50;2.50;;;;;;;;;;5038811;28;20048;-91
2021/10/16 02:03:27;;;;;;;7.57;2.10;;;;;;;;;;5038984;28;20021;-91
2021/10/16 02:05:52;;;;;;;7.13;2.20;;;;;;;;;;5072395;28;20025;-92
2021/10/16 02:08:18;;;;;;;5.67;2.10;;;;;;;;;;5038943;28;20025;-92
2021/10/16 02:10:43;;;;;;;6.10;2.30;;;;;;;;;;5039289;28;20028;-92
2021/10/16 02:13:08;;;;;;;4.27;1.83;;;;;;;;;;5040271;28;20465;-92
2021/10/16 02:15:34;;;;;;;8.93;2.33;;;;;;;;;;5067463;28;20481;-92
2021/10/16 02:17:59;;;;;;;10.87;2.67;;;;;;;;;;5034120;28;20053;-91
2021/10/16 02:20:24;;;;;;;6.77;2.60;;;;;;;;;;5072211;28;20025;-92
2021/10/16 02:22:49;;;;;;;8.73;2.33;;;;;;;;;;5072403;28;20017;-91
2021/10/16 02:25:15;;;;;;;5.97;2.07;;;;;;;;;;5072085;28;20028;-92
2021/10/16 02:27:40;;;;;;;11.10;2.23;;;;;;;;;;5072322;28;20035;-92
2021/10/16 02:30:05;;;;;;;4.90;2.17;;;;;;;;;;5038921;28;20045;-91
2021/10/16 02:32:30;;;;;;;6.03;2.77;;;;;;;;;;5069167;28;20041;-92
2021/10/16 02:34:55;;;;;;;13.27;3.03;;;;;;;;;;5035869;28;20013;-91
2021/10/16 02:37:21;;;;;;;7.77;2.47;;;;;;;;;;5068878;28;20032;-91
2021/10/16 02:39:46;;;;;;;11.50;2.10;;;;;;;;;;5036872;28;20026;-91
2021/10/16 02:42:11;;;;;;;5.67;2.57;;;;;;;;;;5036573;28;20013;-91
2021/10/16 02:44:37;;;;;;;7.37;2.60;;;;;;;;;;5036766;28;20506;-91
2021/10/16 02:47:02;;;;;;;6.47;2.50;;;;;;;;;;5035573;28;20112;-91
2021/10/16 02:49:27;;;;;;;10.03;2.30;;;;;;;;;;5035315;28;20132;-91
2021/10/16 02:51:52;;;;;;;6.43;2.70;;;;;;;;;;5035422;28;20484;-92
2021/10/16 02:54:18;;;;;;;6.57;3.10;;;;;;;;;;5069162;28;20021;-92
2021/10/16 02:56:43;;;;;;;5.73;2.90;;;;;;;;;;5035335;28;20013;-92
2021/10/16 02:59:08;;;;;;;9.20;2.80;;;;;;;;;;5036576;28;20021;-92
2021/10/16 03:01:33;;;;;;;8.87;2.50;;;;;;;;;;5035114;28;20354;-91
2021/10/16 03:03:59;;;;;;;6.30;2.23;;;;;;;;;;5035341;28;20041;-91
2021/10/16 03:06:24;;;;;;;5.43;2.63;;;;;;;;;;5036520;28;20053;-91
2021/10/16 03:08:49;;;;;;;8.47;2.63;;;;;;;;;;5035043;28;20048;-91
2021/10/16 03:11:14;;;;;;;7.67;2.27;;;;;;;;;;5034741;28;20025;-91
2021/10/16 03:13:39;;;;;;;6.53;2.97;;;;;;;;;;5035048;28;20017;-91
2021/10/16 03:16:05;;;;;;;4.83;2.20;;;;;;;;;;5034977;28;20075;-92
2021/10/16 03:18:30;;;;;;;6.27;2.63;;;;;;;;;;5035956;28;20465;-92
2021/10/16 03:20:56;;;;;;;5.80;2.33;;;;;;;;;;5034869;28;20495;-92
2021/10/16 03:23:21;;;;;;;6.77;2.10;;;;;;;;;;5034764;28;20017;-92
2021/10/16 03:25:46;;;;;;;4.90;2.13;;;;;;;;;;5068240;28;20453;-91
2021/10/16 03:28:11;;;;;;;5.17;2.03;;;;;;;;;;5068077;28;20029;-91
2021/10/16 03:30:37;;;;;;;8.00;2.63;;;;;;;;;;5034760;28;20028;-91
2021/10/16 03:33:03;;;;;;;4.20;2.23;;;;;;;;;;5068099;28;20036;-91
2021/10/16 03:35:28;;;;;;;6.77;2.80;;;;;;;;;;5035563;28;20025;-92
2021/10/16 03:37:53;;;;;;;6.67;2.30;;;;;;;;;;5067957;28;20017;-92
2021/10/16 03:40:19;;;;;;;10.17;2.47;;;;;;;;;;5034470;28;20018;-92
2021/10/16 03:42:44;;;;;;;6.93;2.77;;;;;;;;;;5035486;28;20401;-91
2021/10/16 03:45:09;;;;;;;6.27;2.27;;;;;;;;;;5035522;28;20346;-92
2021/10/16 03:47:34;;;;;;;8.50;2.50;;;;;;;;;;5034539;28;20021;-91
2021/10/16 03:49:59;;;;;;;8.80;2.80;;;;;;;;;;5034369;28;20067;-91
2021/10/16 03:52:25;;;;;;;6.17;2.20;;;;;;;;;;5067531;28;20014;-91
2021/10/16 03:54:50;;;;;;;8.80;2.60;;;;;;;;;;5034358;28;20491;-92
2021/10/16 03:57:15;;;;;;;5.37;2.53;;;;;;;;;;5034204;28;20022;-91
2021/10/16 03:59:44;;;;;;;5.67;2.70;;;;;;;;;;5067367;28;20040;-92
2021/10/16 04:02:10;;;;;;;6.53;2.60;;;;;;;;;;5034157;28;20097;-91
2021/10/16 04:04:35;;;;;;;4.97;2.47;;;;;;;;;;5034944;28;20025;-92
2021/10/16 04:07:00;;;;;;;8.57;2.30;;;;;;;;;;5035194;28;20029;-91
2021/10/16 04:09:25;;;;;;;9.23;2.63;;;;;;;;;;5067423;28;20026;-91
2021/10/16 04:11:52;;;;;;;7.60;2.67;;;;;;;;;;5067343;28;20465;-91
2021/10/16 04:14:17;;;;;;;7.50;2.60;;;;;;;;;;5033893;28;20028;-91
2021/10/16 04:16:42;;;;;;;11.10;3.53;;;;;;;;;;5066994;28;20013;-92
2021/10/16 04:19:08;;;;;;;8.73;3.10;;;;;;;;;;5034895;28;20075;-92
2021/10/16 04:21:33;;;;;;;8.03;2.87;;;;;;;;;;5066922;28;20488;-91
2021/10/16 04:23:59;;;;;;;8.10;2.87;;;;;;;;;;5067179;28;20022;-92
2021/10/16 04:26:25;;;;;;;6.60;2.70;;;;;;;;;;5066887;28;20029;-91
2021/10/16 04:28:50;;;;;;;6.13;2.90;;;;;;;;;;5067009;28;20472;-91
2021/10/16 04:31:15;;;;;;;7.50;2.97;;;;;;;;;;5034802;28;20048;-92
2021/10/16 04:33:40;;;;;;;6.37;2.87;;;;;;;;;;5034496;28;20048;-91
2021/10/16 04:36:05;;;;;;;7.67;2.70;;;;;;;;;;5060684;28;20472;-92
2021/10/16 04:38:30;;;;;;;5.83;3.00;;;;;;;;;;5033196;28;20508;-92
2021/10/16 04:40:56;;;;;;;4.97;2.13;;;;;;;;;;5033377;28;20109;-92
2021/10/16 04:43:21;;;;;;;7.67;2.80;;;;;;;;;;5066711;28;20024;-92
2021/10/16 04:45:46;;;;;;;5.60;2.87;;;;;;;;;;5033347;28;20047;-91
2021/10/16 04:48:12;;;;;;;8.63;2.57;;;;;;;;;;5033275;28;20028;-92
2021/10/16 04:50:37;;;;;;;15.80;3.00;;;;;;;;;;5033179;28;20028;-93
2021/10/16 04:53:02;;;;;;;6.30;2.83;;;;;;;;;;5033254;28;20056;-91
2021/10/16 04:55:28;;;;;;;9.00;3.40;;;;;;;;;;5032773;28;20350;-92
2021/10/16 04:57:53;;;;;;;6.03;2.90;;;;;;;;;;5033247;28;20014;-91
2021/10/16 05:00:18;;;;;;;6.23;2.37;;;;;;;;;;5065373;28;20459;-92
2021/10/16 05:02:43;;;;;;;7.10;2.70;;;;;;;;;;5033094;28;20028;-92
2021/10/16 05:05:09;;;;;;;9.70;2.53;;;;;;;;;;5033054;28;20032;-92
2021/10/16 05:07:34;;;;;;;10.17;2.77;;;;;;;;;;5032888;28;20025;-91
2021/10/16 05:09:59;;;;;;;8.17;2.57;;;;;;;;;;5034200;28;20017;-92
2021/10/16 05:12:24;;;;;;;8.07;2.63;;;;;;;;;;5033013;28;20026;-92
2021/10/16 05:14:49;;;;;;;8.23;2.80;;;;;;;;;;5066210;28;20117;-92
2021/10/16 05:17:15;;;;;;;5.47;2.70;;;;;;;;;;5032787;28;20023;-92
2021/10/16 05:19:40;;;;;;;9.27;2.90;;;;;;;;;;5066204;28;20009;-92
2021/10/16 05:22:05;;;;;;;8.17;3.30;;;;;;;;;;5032838;28;20025;-92
2021/10/16 05:24:30;;;;;;;10.03;3.23;;;;;;;;;;5066227;28;20033;-91
2021/10/16 05:26:56;;;;;;;7.33;3.70;;;;;;;;;;5033994;28;20020;-92
2021/10/16 05:29:21;;;;;;;11.47;3.90;;;;;;;;;;5032982;28;20155;-92
2021/10/16 05:31:47;;;;;;;9.00;3.30;;;;;;;;;;5032573;28;20056;-92
2021/10/16 05:34:12;;;;;;;7.77;3.30;;;;;;;;;;5066126;28;20026;-91
2021/10/16 05:36:37;;;;;;;11.83;3.97;;;;;;;;;;5066047;28;20483;-92
2021/10/16 05:39:03;;;;;;;10.27;3.93;;;;;;;;;;5032579;28;20046;-92
2021/10/16 05:41:28;;;;;;;17.83;3.63;;;;;;;;;;5032865;28;20468;-91
2021/10/16 05:43:53;;;;;;;7.87;3.70;;;;;;;;;;5032694;28;20044;-92
2021/10/16 05:46:18;;;;;;;10.43;3.93;;;;;;;;;;5032712;28;20022;-92
2021/10/16 05:48:44;;;;;;;9.70;3.87;;;;;;;;;;5065998;28;20022;-92
2021/10/16 05:51:11;;;;;;;8.53;3.07;;;;;;;;;;5066083;28;20033;-92
2021/10/16 05:53:36;;;;;;;7.20;3.37;;;;;;;;;;5032718;28;20021;-92
2021/10/16 05:56:01;;;;;;;18.77;4.23;;;;;;;;;;5032288;28;20033;-91
2021/10/16 05:58:26;;;;;;;8.57;4.57;;;;;;;;;;5065906;28;20018;-92
2021/10/16 06:00:52;;;;;;;9.00;4.10;;;;;;;;;;5032509;28;20156;-92
2021/10/16 06:03:17;;;;;;;11.10;4.77;;;;;;;;;;5032461;28;20017;-91
2021/10/16 06:05:42;;;;;;;11.00;4.00;;;;;;;;;;5065895;28;20029;-92
2021/10/16 06:08:08;;;;;;;9.87;4.10;;;;;;;;;;5034875;28;20543;-92
2021/10/16 06:10:33;;;;;;;13.00;4.00;;;;;;;;;;5037405;28;20029;-92
2021/10/16 06:12:58;;;;;;;9.43;4.00;;;;;;;;;;5056028;28;20482;-92
2021/10/16 06:15:23;;;;;;;9.20;3.37;;;;;;;;;;5036193;28;20036;-92
2021/10/16 06:17:48;;;;;;;7.03;3.47;;;;;;;;;;5037340;28;20044;-92
2021/10/16 06:20:14;;;;;;;10.97;4.57;;;;;;;;;;5037002;28;20052;-92
2021/10/16 06:22:39;;;;;;;9.33;4.33;;;;;;;;;;5036109;28;20021;-92
2021/10/16 06:25:05;;;;;;;14.00;4.13;;;;;;;;;;5035893;28;20101;-91
2021/10/16 06:27:30;;;;;;;7.07;3.37;;;;;;;;;;5069342;28;20028;-92
2021/10/16 06:29:56;;;;;;;10.17;3.63;;;;;;;;;;5035796;28;20059;-91
2021/10/16 06:32:21;;;;;;;11.20;4.23;;;;;;;;;;5030680;28;20029;-92
2021/10/16 06:34:46;;;;;;;6.63;3.50;;;;;;;;;;5028305;28;20047;-92
2021/10/16 06:37:12;;;;;;;5.87;3.27;;;;;;;;;;5068824;28;20028;-92
2021/10/16 06:39:37;;;;;;;8.80;3.60;;;;;;;;;;5036369;28;20021;-93
2021/10/16 06:42:02;;;;;;;14.57;3.60;;;;;;;;;;5035608;28;20017;-91
2021/10/16 06:44:27;;;;;;;8.60;3.73;;;;;;;;;;5035628;28;20021;-92
2021/10/16 06:46:53;;;;;;;8.17;3.80;;;;;;;;;;5069008;28;20025;-91
2021/10/16 06:49:18;;;;;;;7.57;3.40;;;;;;;;;;5035502;28;20476;-91
2021/10/16 06:51:43;;;;;;;9.23;3.93;;;;;;;;;;5036661;28;20642;-92
2021/10/16 06:54:10;;;;;;;10.20;3.67;;;;;;;;;;5035232;28;20049;-91
2021/10/16 06:56:35;;;;;;;9.67;3.40;;;;;;;;;;5035444;28;20435;-92
2021/10/16 06:59:00;;;;;;;15.87;4.60;;;;;;;;;;5068678;28;20037;-92
2021/10/16 07:01:26;;;;;;;9.73;4.23;;;;;;;;;;5035383;28;20010;-92
2021/10/16 07:03:51;;;;;;;12.77;4.50;;;;;;;;;;5035279;28;20465;-91
2021/10/16 07:06:16;;;;;;;7.73;4.30;;;;;;;;;;5036265;28;20099;-92
2021/10/16 07:08:41;;;;;;;13.60;4.90;;;;;;;;;;5035118;28;20467;-92
2021/10/16 07:11:07;;;;;;;13.93;5.50;;;;;;;;;;5068807;28;20519;-92
2021/10/16 07:13:32;;;;;;;14.03;5.30;;;;;;;;;;5068304;28;20049;-91
2021/10/16 07:15:58;;;;;;;13.77;6.07;;;;;;;;;;5068389;28;20033;-91
2021/10/16 07:18:24;;;;;;;15.00;5.57;;;;;;;;;;5067839;28;20021;-91
2021/10/16 07:20:49;;;;;;;16.17;5.73;;;;;;;;;;5034914;28;20545;-91
2021/10/16 07:23:16;;;;;;;19.70;6.27;;;;;;;;;;5068336;28;20049;-92
2021/10/16 07:25:43;;;;;;;12.10;5.73;;;;;;;;;;5068487;28;20464;-92
2021/10/16 07:28:09;;;;;;;12.03;5.13;;;;;;;;;;5068172;28;20053;-91
2021/10/16 07:30:34;;;;;;;11.87;4.93;;;;;;;;;;5034836;28;20014;-92
2021/10/16 07:32:59;;;;;;;15.00;6.07;;;;;;;;;;5034790;28;20021;-91
2021/10/16 07:35:24;;;;;;;24.67;7.57;;;;;;;;;;5034691;28;20017;-92
2021/10/16 07:37:49;;;;;;;20.90;8.37;;;;;;;;;;5067322;28;20044;-91
2021/10/16 07:40:14;;;;;;;26.10;9.07;;;;;;;;;;5034451;28;20022;-92
2021/10/16 07:42:40;;;;;;;16.67;7.43;;;;;;;;;;5034603;28;20013;-91
2021/10/16 07:45:05;;;;;;;17.60;7.13;;;;;;;;;;5034666;28;20021;-91
2021/10/16 07:47:30;;;;;;;21.37;6.47;;;;;;;;;;5035496;28;20040;-92
2021/10/16 07:49:55;;;;;;;12.43;6.20;;;;;;;;;;5035645;28;20469;-92
2021/10/16 07:52:21;;;;;;;19.60;6.83;;;;;;;;;;5067466;28;20487;-91
2021/10/16 07:54:46;;;;;;;17.37;6.10;;;;;;;;;;5034239;28;20018;-93
2021/10/16 07:57:11;;;;;;;14.47;5.97;;;;;;;;;;5033639;28;20025;-92
2021/10/16 07:59:36;;;;;;;16.33;6.13;;;;;;;;;;5034537;28;20017;-92
2021/10/16 08:02:02;;;;;;;18.30;5.60;;;;;;;;;;5050982;28;20013;-92
2021/10/16 08:04:27;;;;;;;15.87;5.80;;;;;;;;;;5037404;28;20060;-92
2021/10/16 08:06:52;;;;;;;20.87;6.23;;;;;;;;;;5067008;28;20021;-92
2021/10/16 08:09:17;;;;;;;17.83;6.47;;;;;;;;;;5033988;28;20064;-92
2021/10/16 08:11:43;;;;;;;14.20;6.10;;;;;;;;;;5034833;28;20461;-92
2021/10/16 08:14:08;;;;;;;18.00;6.23;;;;;;;;;;5034773;28;20025;-92
2021/10/16 08:16:33;;;;;;;18.70;7.07;;;;;;;;;;5033637;28;20036;-93
2021/10/16 08:18:58;;;;;;;15.80;6.73;;;;;;;;;;5039526;28;20025;-92
2021/10/16 08:21:24;;;;;;;20.63;6.60;;;;;;;;;;5033520;28;20029;-92
2021/10/16 08:23:49;;;;;;;16.75;6.50;;;;;;;;;;5033716;28;20354;-92
2021/10/16 08:26:14;;;;;;;17.50;6.67;;;;;;;;;;5033583;28;20021;-91
2021/10/16 08:28:39;;;;;;;18.77;6.90;;;;;;;;;;5033351;28;20053;-92
2021/10/16 08:31:05;;;;;;;12.00;6.03;;;;;;;;;;5032511;28;20052;-92
2021/10/16 08:33:33;;;;;;;23.63;7.00;;;;;;;;;;5066632;28;20087;-92
2021/10/16 08:35:59;;;;;;;24.03;6.47;;;;;;;;;;5033430;28;20392;-92
2021/10/16 08:38:24;;;;;;;19.57;6.23;;;;;;;;;;5066650;28;20097;-92
2021/10/16 08:40:50;;;;;;;17.83;5.60;;;;;;;;;;5033406;28;20020;-92
2021/10/16 08:43:15;;;;;;;15.67;6.13;;;;;;;;;;5033460;28;20097;-92
2021/10/16 08:45:40;;;;;;;17.00;6.33;;;;;;;;;;5066565;28;20116;-92
2021/10/16 08:48:06;;;;;;;18.50;5.88;;;;;;;;;;5024483;28;20010;-92
2021/10/16 08:50:31;;;;;;;26.17;7.72;;;;;;;;;;5030295;28;20013;-92
2021/10/16 08:52:57;;;;;;;13.30;5.65;;;;;;;;;;5058651;28;20021;-93
2021/10/16 08:55:22;;;;;;;13.75;5.15;;;;;;;;;;5013611;28;20018;-93
2021/10/16 08:57:48;;;;;;;22.55;6.68;;;;;;;;;;5033898;28;20503;-91
2021/10/16 09:00:32;;;;;;;17.50;6.68;;;;;;;;;;5032863;28;20024;-92
2021/10/16 09:02:57;;;;;;;14.35;5.80;;;;;;;;;;5049367;28;20022;-92
2021/10/16 09:05:22;;;;;;;24.77;7.28;;;;;;;;;;5032917;28;20051;-92
2021/10/16 09:07:48;;;;;;;27.77;6.53;;;;;;;;;;5066278;28;20057;-92
2021/10/16 09:10:23;;;;;;;17.60;6.30;;;;;;;;;;5047416;28;20119;-92
2021/10/16 09:12:48;;;;;;;18.70;5.70;;;;;;;;;;5039387;28;20469;-92
2021/10/16 09:15:21;;;;;;;21.10;6.20;;;;;;;;;;5032731;28;20047;-92
2021/10/16 09:18:19;;;;;;;16.55;5.13;;;;;;;;;;5035233;28;20021;-91
2021/10/16 09:20:44;;;;;;;19.95;5.80;;;;;;;;;;5032953;28;20033;-92
2021/10/16 09:23:10;;;;;;;25.55;6.05;;;;;;;;;;5033642;28;20461;-92
2021/10/16 09:25:36;;;;;;;16.50;4.93;;;;;;;;;;5032535;28;20048;-92
2021/10/16 09:28:18;;;;;;;20.65;6.00;;;;;;;;;;5032628;28;20074;-92
2021/10/16 09:30:44;;;;;;;24.13;5.50;;;;;;;;;;5019871;28;20056;-92
2021/10/16 09:33:09;;;;;;;16.98;5.30;;;;;;;;;;5032778;28;20271;-92
2021/10/16 09:35:35;;;;;;;17.50;4.78;;;;;;;;;;5065907;28;20087;-93
2021/10/16 09:38:00;;;;;;;19.30;4.93;;;;;;;;;;5066171;28;20526;-92
2021/10/16 09:40:39;;;;;;;13.50;3.90;;;;;;;;;;5032614;28;20021;-92
2021/10/16 09:43:20;;;;;;;9.52;3.55;;;;;;;;;;5036467;28;20025;-92
2021/10/16 09:45:46;;;;;;;13.98;3.95;;;;;;;;;;5067914;28;20017;-92
2021/10/16 09:48:11;;;;;;;11.82;3.33;;;;;;;;;;5037617;28;20009;-92
2021/10/16 09:50:36;;;;;;;16.60;3.85;;;;;;;;;;5069319;28;20392;-91
2021/10/16 09:53:17;;;;;;;20.48;3.58;;;;;;;;;;5037832;28;20032;-92
2021/10/16 09:55:42;;;;;;;19.83;3.40;;;;;;;;;;5039587;28;20481;-92
2021/10/16 09:58:08;;;;;;;12.50;3.40;;;;;;;;;;5069547;28;20068;-92
2021/10/16 10:00:34;;;;;;;15.43;2.72;;;;;;;;;;5036216;28;20014;-92
2021/10/16 10:03:00;;;;;;;11.20;2.33;;;;;;;;;;5047066;28;20028;-92
2021/10/16 10:05:26;;;;;;;12.88;1.70;;;;;;;;;;5036140;28;20014;-92
2021/10/16 10:07:51;;;;;;;10.20;2.08;;;;;;;;;;5036086;28;20026;-92
2021/10/16 10:10:17;;;;;;;13.38;2.15;;;;;;;;;;5069553;28;20159;-92
2021/10/16 10:12:42;;;;;;;16.42;2.65;;;;;;;;;;5077061;28;20415;-92
2021/10/16 10:15:08;;;;;;;9.32;2.08;;;;;;;;;;5035925;28;20037;-92
2021/10/16 10:17:33;;;;;;;9.75;1.98;;;;;;;;;;5039000;28;20032;-92
2021/10/16 10:20:01;;;;;;;7.63;1.90;;;;;;;;;;5048909;28;20036;-92
2021/10/16 10:22:30;;;;;;;9.27;1.85;;;;;;;;;;5081232;28;20058;-91
2021/10/16 10:24:55;;;;;;;10.48;1.90;;;;;;;;;;5054779;28;20116;-92
2021/10/16 10:27:22;;;;;;;12.30;1.92;;;;;;;;;;5069322;28;20056;-92
2021/10/16 10:29:50;;;;;;;5.38;1.73;;;;;;;;;;5035805;28;20025;-92
2021/10/16 10:32:16;;;;;;;9.02;1.88;;;;;;;;;;5036787;28;20030;-91
2021/10/16 10:34:51;;;;;;;9.48;1.60;;;;;;;;;;5043929;28;20083;-92
2021/10/16 10:37:16;;;;;;;4.47;0.90;;;;;;;;;;5035574;28;20112;-92
2021/10/16 10:39:43;;;;;;;6.07;1.30;;;;;;;;;;5044922;28;20049;-92
2021/10/16 10:42:08;;;;;;;4.30;0.75;;;;;;;;;;5035622;28;20021;-92
2021/10/16 10:44:37;;;;;;;4.75;1.10;;;;;;;;;;5045198;28;20026;-92
2021/10/16 10:47:21;;;;;;;4.40;1.23;;;;;;;;;;5075691;28;20511;-92
2021/10/16 10:49:46;;;;;;;9.73;1.13;;;;;;;;;;5068547;28;20040;-92
2021/10/16 10:52:12;;;;;;;4.20;0.85;;;;;;;;;;5034991;28;20034;-91
2021/10/16 10:54:38;;;;;;;3.03;0.98;;;;;;;;;;5035701;28;20010;-92
2021/10/16 10:57:03;;;;;;;8.18;1.20;;;;;;;;;;5069004;28;20026;-92
2021/10/16 10:59:28;;;;;;;3.13;0.75;;;;;;;;;;5068285;28;20093;-92
2021/10/16 11:01:55;;;;;;;3.97;1.10;;;;;;;;;;5035148;28;20530;-92
2021/10/16 11:04:39;;;;;;;4.43;0.85;;;;;;;;;;5035259;28;20085;-93
2021/10/16 11:07:06;;;;;;;9.30;1.48;;;;;;;;;;5023441;28;20017;-92
2021/10/16 11:09:32;;;;;;;13.18;1.33;;;;;;;;;;5067675;28;20026;-92
2021/10/16 11:11:57;;;;;;;6.30;1.30;;;;;;;;;;5046810;28;20071;-92
2021/10/16 11:14:30;;;;;;;6.28;1.67;;;;;;;;;;5077763;28;20021;-91
2021/10/16 11:16:56;;;;;;;3.05;1.00;;;;;;;;;;5047335;28;20074;-92
2021/10/16 11:19:21;;;;;;;6.72;1.20;;;;;;;;;;5034946;28;20112;-93
2021/10/16 11:21:51;;;;;;;6.63;1.48;;;;;;;;;;5034684;28;20036;-92
2021/10/16 11:24:16;;;;;;;6.47;0.90;;;;;;;;;;5076704;28;20027;-92
2021/10/16 11:26:52;;;;;;;3.08;0.90;;;;;;;;;;5038728;28;20100;-92
2021/10/16 11:29:30;;;;;;;5.10;0.93;;;;;;;;;;5067780;28;20075;-91
2021/10/16 11:32:10;;;;;;;12.88;1.38;;;;;;;;;;5034217;28;20021;-92
2021/10/16 11:34:36;;;;;;;3.97;0.95;;;;;;;;;;5034575;28;20055;-92
2021/10/16 11:37:01;;;;;;;8.57;1.20;;;;;;;;;;5039841;28;20112;-92
2021/10/16 11:39:29;;;;;;;6.03;1.42;;;;;;;;;;5034538;28;20017;-92
2021/10/16 11:41:55;;;;;;;10.43;1.40;;;;;;;;;;5035648;28;20094;-92
2021/10/16 11:44:20;;;;;;;6.13;1.10;;;;;;;;;;5067750;28;20442;-92
2021/10/16 11:46:56;;;;;;;8.38;1.25;;;;;;;;;;5034468;28;20440;-92
2021/10/16 11:49:23;;;;;;;9.32;1.02;;;;;;;;;;5034352;28;20057;-92
2021/10/16 11:51:48;;;;;;;5.78;1.40;;;;;;;;;;5038136;28;20087;-92
2021/10/16 11:54:17;;;;;;;4.10;1.17;;;;;;;;;;5067182;28;20018;-92
2021/10/16 11:56:42;;;;;;;5.75;1.15;;;;;;;;;;5035366;28;20021;-92
2021/10/16 11:59:08;;;;;;;6.97;1.13;;;;;;;;;;5035312;28;20012;-92
2021/10/16 12:01:42;;;;;;;7.68;1.65;;;;;;;;;;5034114;28;20038;-93
2021/10/16 12:04:10;;;;;;;6.43;1.17;;;;;;;;;;5035179;28;20013;-92
2021/10/16 12:06:35;;;;;;;6.82;1.40;;;;;;;;;;5067132;28;20017;-92
2021/10/16 12:09:02;;;;;;;8.60;1.25;;;;;;;;;;5033822;28;20477;-92
2021/10/16 12:11:31;;;;;;;8.00;1.40;;;;;;;;;;5034904;28;20022;-92
2021/10/16 12:13:58;;;;;;;9.38;1.27;;;;;;;;;;5034104;28;20518;-92
2021/10/16 12:16:24;;;;;;;7.03;1.35;;;;;;;;;;5066813;28;20029;-92
2021/10/16 12:18:54;;;;;;;5.35;1.20;;;;;;;;;;5067056;28;20040;-92
2021/10/16 12:21:24;;;;;;;5.00;1.27;;;;;;;;;;5043209;28;20025;-92
2021/10/16 12:23:49;;;;;;;10.25;1.67;;;;;;;;;;5036535;28;20033;-92
2021/10/16 12:26:22;;;;;;;9.73;1.73;;;;;;;;;;5033753;28;20028;-92
2021/10/16 12:28:47;;;;;;;5.88;1.40;;;;;;;;;;5033611;28;20112;-92
2021/10/16 12:31:13;;;;;;;7.03;1.20;;;;;;;;;;5074255;28;20059;-93
2021/10/16 12:33:57;;;;;;;5.43;1.10;;;;;;;;;;5033288;28;20022;-92
2021/10/16 12:36:27;;;;;;;6.88;1.45;;;;;;;;;;5033351;28;20108;-92
2021/10/16 12:38:52;;;;;;;12.63;1.63;;;;;;;;;;5077783;28;20370;-92
2021/10/16 12:41:22;;;;;;;2.83;1.13;;;;;;;;;;5033191;28;20032;-92
2021/10/16 12:43:47;;;;;;;13.20;1.38;;;;;;;;;;5030644;28;20447;-92
2021/10/16 12:46:25;;;;;;;3.33;1.15;;;;;;;;;;5021934;28;20021;-92
2021/10/16 12:48:55;;;;;;;8.70;1.58;;;;;;;;;;5069111;28;20074;-92
2021/10/16 12:51:40;;;;;;;7.10;1.00;;;;;;;;;;5066702;28;20025;-92
2021/10/16 12:54:05;;;;;;;3.42;1.13;;;;;;;;;;5033136;28;20032;-92
2021/10/16 12:56:30;;;;;;;7.25;1.00;;;;;;;;;;5034173;28;20029;-92
2021/10/16 12:58:55;;;;;;;9.88;1.33;;;;;;;;;;5034055;28;20458;-92
2021/10/16 13:01:21;;;;;;;5.20;1.35;;;;;;;;;;5034174;28;20017;-92
2021/10/16 13:03:47;;;;;;;6.65;1.20;;;;;;;;;;5032979;28;20108;-93
2021/10/16 13:06:12;;;;;;;10.63;1.60;;;;;;;;;;5034045;28;20029;-92
2021/10/16 13:08:37;;;;;;;4.53;1.30;;;;;;;;;;5033945;28;20148;-92
2021/10/16 13:11:02;;;;;;;4.97;1.25;;;;;;;;;;5032998;28;20025;-92
2021/10/16 13:13:27;;;;;;;5.93;1.25;;;;;;;;;;5066361;28;20053;-92
2021/10/16 13:15:53;;;;;;;6.97;1.13;;;;;;;;;;5032092;28;20026;-92
2021/10/16 13:18:18;;;;;;;7.85;1.27;;;;;;;;;;5032303;28;20450;-92
2021/10/16 13:20:43;;;;;;;3.88;1.10;;;;;;;;;;5033735;28;20017;-93
2021/10/16 13:23:08;;;;;;;6.13;1.15;;;;;;;;;;5032707;28;20109;-92
2021/10/16 13:25:33;;;;;;;4.18;1.00;;;;;;;;;;5036630;28;20017;-92
2021/10/16 13:27:59;;;;;;;7.65;1.55;;;;;;;;;;5041380;28;20029;-92
2021/10/16 13:30:24;;;;;;;4.55;1.13;;;;;;;;;;5032878;28;20025;-92
2021/10/16 13:32:50;;;;;;;5.85;1.30;;;;;;;;;;5032630;28;20022;-92
2021/10/16 13:35:15;;;;;;;9.82;1.33;;;;;;;;;;5032602;28;20021;-92
2021/10/16 13:37:40;;;;;;;3.83;1.17;;;;;;;;;;5036123;28;20393;-92
2021/10/16 13:40:06;;;;;;;7.40;1.30;;;;;;;;;;5026755;28;20049;-92
2021/10/16 13:42:33;;;;;;;5.80;1.50;;;;;;;;;;5032346;28;20014;-92
2021/10/16 13:44:59;;;;;;;5.43;1.10;;;;;;;;;;5020433;28;20108;-92
2021/10/16 13:47:25;;;;;;;7.30;1.27;;;;;;;;;;5031777;28;20071;-92
2021/10/16 13:49:50;;;;;;;10.85;1.33;;;;;;;;;;5032571;28;20442;-92
2021/10/16 13:52:15;;;;;;;7.15;1.00;;;;;;;;;;5032527;28;20109;-92
2021/10/16 13:54:41;;;;;;;8.63;1.92;;;;;;;;;;5032588;28;20041;-92
2021/10/16 13:57:06;;;;;;;5.47;0.88;;;;;;;;;;5032223;28;20030;-92
2021/10/16 13:59:31;;;;;;;3.92;1.27;;;;;;;;;;5033578;28;20171;-92
2021/10/16 14:01:56;;;;;;;6.03;1.17;;;;;;;;;;5032587;28;20525;-91
2021/10/16 14:04:21;;;;;;;6.10;1.52;;;;;;;;;;5065776;28;20021;-93
2021/10/16 14:06:47;;;;;;;5.00;1.00;;;;;;;;;;5033498;28;20020;-92
2021/10/16 14:09:15;;;;;;;4.68;1.10;;;;;;;;;;5032287;28;20109;-92
2021/10/16 14:11:40;;;;;;;5.05;1.15;;;;;;;;;;5065628;28;20381;-92
2021/10/16 14:14:05;;;;;;;4.90;1.08;;;;;;;;;;5032226;28;20021;-92
2021/10/16 14:16:30;;;;;;;4.60;1.20;;;;;;;;;;5032001;28;20032;-92
2021/10/16 14:18:58;;;;;;;6.47;1.17;;;;;;;;;;5056771;28;20014;-92
2021/10/16 14:21:24;;;;;;;7.18;1.42;;;;;;;;;;5026491;28;20021;-92
2021/10/16 14:23:49;;;;;;;10.75;1.65;;;;;;;;;;5018874;28;20524;-92
2021/10/16 14:26:14;;;;;;;3.75;1.10;;;;;;;;;;5031366;28;20018;-92
2021/10/16 14:28:39;;;;;;;4.07;1.23;;;;;;;;;;5065917;28;20021;-92
2021/10/16 14:31:06;;;;;;;5.43;1.63;;;;;;;;;;5036063;28;20028;-92
2021/10/16 14:33:31;;;;;;;5.38;1.52;;;;;;;;;;5033024;28;20085;-92